EGV1339 EBBR-LSZR
Flight info
| Callsign | EGV1339 |
|---|---|
| Flight time | 0h 54m |
| Altitude | 23000 |
| Route | PITES DCT STR DCT ZUE |
| Aircraft | A320/M-SDE3FGHIRWY/LB1 |
Departure
| Time | 2026-04-12 10:38 |
|---|---|
| Airport | Brussels Airport (EBBR) |
Arrival
| Time | 2026-04-12 11:32 |
|---|---|
| Airport | Sankt Gallen Altenrhein Airport (LSZR) |
| Time | Latitude | Longitude | Altitude | Speed | Heading |
|---|---|---|---|---|---|
| 2026-04-12 10:04 | 50.90198 | 4.48296 | 144 ft | 0 kts | 337° |
| 2026-04-12 10:22 | 50.90192 | 4.48300 | 143 ft | 2 kts | 334° |
| 2026-04-12 10:22 | 50.90177 | 4.48311 | 143 ft | 2 kts | 335° |
| 2026-04-12 10:23 | 50.90162 | 4.48322 | 143 ft | 2 kts | 334° |
| 2026-04-12 10:23 | 50.90151 | 4.48339 | 143 ft | 2 kts | 308° |
| 2026-04-12 10:23 | 50.90139 | 4.48358 | 144 ft | 2 kts | 347° |
| 2026-04-12 10:23 | 50.90125 | 4.48353 | 143 ft | 2 kts | 60° |
| 2026-04-12 10:24 | 50.90122 | 4.48348 | 144 ft | 0 kts | 66° |
| 2026-04-12 10:28 | 50.90123 | 4.48349 | 144 ft | 1 kts | 66° |
| 2026-04-12 10:29 | 50.90140 | 4.48409 | 144 ft | 12 kts | 66° |
| 2026-04-12 10:29 | 50.90186 | 4.48569 | 144 ft | 17 kts | 65° |
| 2026-04-12 10:29 | 50.90233 | 4.48734 | 144 ft | 16 kts | 65° |
| 2026-04-12 10:29 | 50.90276 | 4.48884 | 144 ft | 14 kts | 65° |
| 2026-04-12 10:30 | 50.90315 | 4.49020 | 144 ft | 13 kts | 66° |
| 2026-04-12 10:30 | 50.90353 | 4.49138 | 144 ft | 11 kts | 53° |
| 2026-04-12 10:30 | 50.90385 | 4.49260 | 143 ft | 14 kts | 66° |
| 2026-04-12 10:30 | 50.90432 | 4.49424 | 143 ft | 19 kts | 66° |
| 2026-04-12 10:31 | 50.90506 | 4.49613 | 143 ft | 22 kts | 26° |
| 2026-04-12 10:31 | 50.90664 | 4.49677 | 142 ft | 23 kts | 15° |
| 2026-04-12 10:31 | 50.90792 | 4.49730 | 142 ft | 15 kts | 15° |
| 2026-04-12 10:31 | 50.90907 | 4.49777 | 141 ft | 19 kts | 15° |
| 2026-04-12 10:32 | 50.90986 | 4.49866 | 138 ft | 15 kts | 38° |
| 2026-04-12 10:32 | 50.91042 | 4.49914 | 134 ft | 0 kts | 24° |
| 2026-04-12 10:36 | 50.91049 | 4.49919 | 133 ft | 5 kts | 24° |
| 2026-04-12 10:36 | 50.91125 | 4.49925 | 123 ft | 16 kts | 319° |
| 2026-04-12 10:36 | 50.91114 | 4.49791 | 123 ft | 5 kts | 245° |
| 2026-04-12 10:37 | 50.91084 | 4.49689 | 123 ft | 38 kts | 244° |
| 2026-04-12 10:37 | 50.90879 | 4.48979 | 129 ft | 103 kts | 245° |
| 2026-04-12 10:37 | 50.90508 | 4.47688 | 137 ft | 153 kts | 245° |
| 2026-04-12 10:37 | 50.90042 | 4.46066 | 545 ft | 168 kts | 240° |
| 2026-04-12 10:38 | 50.89550 | 4.44362 | 1459 ft | 170 kts | 241° |
| 2026-04-12 10:38 | 50.89014 | 4.42697 | 2111 ft | 173 kts | 224° |
| 2026-04-12 10:38 | 50.87888 | 4.41926 | 2480 ft | 193 kts | 179° |
| 2026-04-12 10:38 | 50.86570 | 4.42816 | 2865 ft | 227 kts | 145° |
| 2026-04-12 10:39 | 50.85403 | 4.44701 | 3375 ft | 251 kts | 135° |
| 2026-04-12 10:39 | 50.84293 | 4.46903 | 4189 ft | 259 kts | 133° |
| 2026-04-12 10:39 | 50.83177 | 4.49178 | 5063 ft | 264 kts | 134° |
| 2026-04-12 10:39 | 50.82022 | 4.51461 | 5916 ft | 268 kts | 135° |
| 2026-04-12 10:40 | 50.80820 | 4.53742 | 6756 ft | 272 kts | 136° |
| 2026-04-12 10:40 | 50.79575 | 4.56020 | 7573 ft | 276 kts | 137° |
| 2026-04-12 10:40 | 50.78292 | 4.58299 | 8399 ft | 280 kts | 137° |
| 2026-04-12 10:40 | 50.76978 | 4.60602 | 9212 ft | 284 kts | 137° |
| 2026-04-12 10:41 | 50.75639 | 4.62935 | 10019 ft | 289 kts | 137° |
| 2026-04-12 10:41 | 50.74265 | 4.65329 | 10490 ft | 305 kts | 137° |
| 2026-04-12 10:41 | 50.72797 | 4.67921 | 10714 ft | 329 kts | 136° |
| 2026-04-12 10:41 | 50.71229 | 4.70722 | 10899 ft | 352 kts | 135° |
| 2026-04-12 10:42 | 50.69772 | 4.73992 | 11185 ft | 375 kts | 123° |
| 2026-04-12 10:42 | 50.68701 | 4.77804 | 11774 ft | 386 kts | 112° |
| 2026-04-12 10:42 | 50.67951 | 4.81906 | 12424 ft | 392 kts | 109° |
| 2026-04-12 10:42 | 50.67195 | 4.86056 | 13072 ft | 395 kts | 111° |
| 2026-04-12 10:43 | 50.64621 | 4.93646 | 14300 ft | 394 kts | 133° |
| 2026-04-12 10:43 | 50.62760 | 4.96793 | 14876 ft | 393 kts | 140° |
| 2026-04-12 10:43 | 50.60823 | 4.99780 | 15452 ft | 397 kts | 140° |
| 2026-04-12 10:44 | 50.58818 | 5.02875 | 16053 ft | 400 kts | 140° |
| 2026-04-12 10:44 | 50.56825 | 5.05951 | 16627 ft | 404 kts | 141° |
| 2026-04-12 10:44 | 50.54835 | 5.09025 | 17184 ft | 408 kts | 140° |
| 2026-04-12 10:44 | 50.52803 | 5.12166 | 17745 ft | 412 kts | 141° |
| 2026-04-12 10:45 | 50.50752 | 5.15335 | 18303 ft | 416 kts | 141° |
| 2026-04-12 10:45 | 50.48679 | 5.18531 | 18781 ft | 419 kts | 141° |
| 2026-04-12 10:45 | 50.46589 | 5.21749 | 19240 ft | 423 kts | 141° |
| 2026-04-12 10:45 | 50.44485 | 5.24990 | 19710 ft | 426 kts | 141° |
| 2026-04-12 10:46 | 50.42359 | 5.28257 | 20162 ft | 429 kts | 141° |
| 2026-04-12 10:46 | 50.40220 | 5.31534 | 20610 ft | 432 kts | 141° |
| 2026-04-12 10:46 | 50.38064 | 5.34827 | 21035 ft | 435 kts | 141° |
| 2026-04-12 10:46 | 50.35888 | 5.38143 | 21457 ft | 437 kts | 141° |
| 2026-04-12 10:47 | 50.33702 | 5.41471 | 21875 ft | 440 kts | 142° |
| 2026-04-12 10:47 | 50.31500 | 5.44819 | 22277 ft | 443 kts | 142° |
| 2026-04-12 10:47 | 50.29277 | 5.48201 | 22662 ft | 446 kts | 142° |
| 2026-04-12 10:47 | 50.27052 | 5.51586 | 22999 ft | 448 kts | 142° |
| 2026-04-12 10:48 | 50.24803 | 5.54999 | 23072 ft | 455 kts | 142° |
| 2026-04-12 10:48 | 50.22501 | 5.58476 | 23072 ft | 465 kts | 141° |
| 2026-04-12 10:48 | 50.20185 | 5.61968 | 23072 ft | 472 kts | 141° |
| 2026-04-12 10:48 | 50.17821 | 5.65542 | 23082 ft | 474 kts | 141° |
| 2026-04-12 10:49 | 50.15452 | 5.69130 | 23077 ft | 474 kts | 141° |
| 2026-04-12 10:49 | 50.13085 | 5.72709 | 23087 ft | 475 kts | 141° |
| 2026-04-12 10:49 | 50.10710 | 5.76290 | 23078 ft | 475 kts | 141° |
| 2026-04-12 10:49 | 50.08332 | 5.79866 | 23084 ft | 475 kts | 141° |
| 2026-04-12 10:50 | 50.05952 | 5.83433 | 23084 ft | 475 kts | 141° |
| 2026-04-12 10:50 | 50.03565 | 5.87002 | 23084 ft | 476 kts | 141° |
| 2026-04-12 10:50 | 50.01183 | 5.90563 | 23073 ft | 476 kts | 141° |
| 2026-04-12 10:50 | 49.98793 | 5.94136 | 23070 ft | 476 kts | 141° |
| 2026-04-12 10:51 | 49.96410 | 5.97698 | 23067 ft | 476 kts | 141° |
| 2026-04-12 10:51 | 49.94024 | 6.01261 | 23059 ft | 476 kts | 141° |
| 2026-04-12 10:51 | 49.91636 | 6.04815 | 23059 ft | 476 kts | 141° |
| 2026-04-12 10:51 | 49.89243 | 6.08364 | 23061 ft | 476 kts | 141° |
| 2026-04-12 10:52 | 49.86956 | 6.12108 | 23063 ft | 481 kts | 133° |
| 2026-04-12 10:52 | 49.85026 | 6.16357 | 23063 ft | 486 kts | 124° |
| 2026-04-12 10:52 | 49.83422 | 6.20987 | 23065 ft | 488 kts | 121° |
| 2026-04-12 10:52 | 49.81847 | 6.25647 | 23068 ft | 488 kts | 121° |
| 2026-04-12 10:53 | 49.80267 | 6.30297 | 23072 ft | 488 kts | 121° |
| 2026-04-12 10:53 | 49.78699 | 6.34888 | 23068 ft | 489 kts | 121° |
| 2026-04-12 10:53 | 49.77109 | 6.39534 | 23065 ft | 489 kts | 121° |
| 2026-04-12 10:53 | 49.75501 | 6.44163 | 23066 ft | 488 kts | 124° |
| 2026-04-12 10:54 | 49.73590 | 6.48472 | 23066 ft | 483 kts | 133° |
| 2026-04-12 10:54 | 49.71316 | 6.52247 | 23064 ft | 478 kts | 142° |
| 2026-04-12 10:54 | 49.68731 | 6.55438 | 23062 ft | 473 kts | 150° |
| 2026-04-12 10:54 | 49.65922 | 6.58048 | 23066 ft | 470 kts | 155° |
| 2026-04-12 10:55 | 49.63076 | 6.60544 | 23065 ft | 471 kts | 155° |
| 2026-04-12 10:55 | 49.60232 | 6.63052 | 23061 ft | 472 kts | 154° |
| 2026-04-12 10:55 | 49.57382 | 6.65570 | 23055 ft | 472 kts | 154° |
| 2026-04-12 10:55 | 49.54533 | 6.68083 | 23057 ft | 472 kts | 154° |
| 2026-04-12 10:56 | 49.51677 | 6.70595 | 23056 ft | 473 kts | 154° |
| 2026-04-12 10:56 | 49.48821 | 6.73108 | 23059 ft | 473 kts | 154° |
| 2026-04-12 10:56 | 49.45959 | 6.75616 | 23054 ft | 474 kts | 154° |
| 2026-04-12 10:56 | 49.43092 | 6.78120 | 23061 ft | 474 kts | 155° |
| 2026-04-12 10:57 | 49.40223 | 6.80616 | 23064 ft | 474 kts | 155° |
| 2026-04-12 10:57 | 49.37344 | 6.83116 | 23078 ft | 475 kts | 155° |
| 2026-04-12 10:57 | 49.34470 | 6.85614 | 23075 ft | 475 kts | 155° |
| 2026-04-12 10:57 | 49.31592 | 6.88115 | 23073 ft | 476 kts | 154° |
| 2026-04-12 10:58 | 49.28711 | 6.90616 | 23080 ft | 476 kts | 154° |
| 2026-04-12 10:58 | 49.25829 | 6.93115 | 23082 ft | 476 kts | 154° |
| 2026-04-12 10:58 | 49.22943 | 6.95616 | 23078 ft | 477 kts | 154° |
| 2026-04-12 10:58 | 49.20059 | 6.98108 | 23079 ft | 477 kts | 154° |
| 2026-04-12 10:59 | 49.17165 | 7.00604 | 23081 ft | 477 kts | 154° |
| 2026-04-12 10:59 | 49.14276 | 7.03097 | 23083 ft | 478 kts | 154° |
| 2026-04-12 10:59 | 49.11429 | 7.05550 | 23079 ft | 478 kts | 154° |
| 2026-04-12 10:59 | 49.08483 | 7.08080 | 23079 ft | 478 kts | 155° |
| 2026-04-12 11:00 | 49.05581 | 7.10564 | 23081 ft | 478 kts | 154° |
| 2026-04-12 11:00 | 49.02718 | 7.13017 | 23083 ft | 479 kts | 154° |
| 2026-04-12 11:00 | 48.99814 | 7.15503 | 23079 ft | 479 kts | 154° |
| 2026-04-12 11:00 | 48.96870 | 7.18026 | 23082 ft | 479 kts | 154° |
| 2026-04-12 11:01 | 48.94002 | 7.20477 | 23083 ft | 479 kts | 154° |
| 2026-04-12 11:01 | 48.91094 | 7.22960 | 23077 ft | 480 kts | 154° |
| 2026-04-12 11:01 | 48.88189 | 7.25437 | 23107 ft | 480 kts | 154° |
| 2026-04-12 11:01 | 48.85271 | 7.27921 | 23108 ft | 481 kts | 154° |
| 2026-04-12 11:02 | 48.82352 | 7.30400 | 23111 ft | 481 kts | 154° |
| 2026-04-12 11:02 | 48.79432 | 7.32877 | 23117 ft | 481 kts | 155° |
| 2026-04-12 11:02 | 48.76509 | 7.35350 | 23110 ft | 480 kts | 155° |
| 2026-04-12 11:02 | 48.73592 | 7.37815 | 23115 ft | 480 kts | 155° |
| 2026-04-12 11:03 | 48.70675 | 7.40281 | 23111 ft | 480 kts | 155° |
| 2026-04-12 11:03 | 48.67758 | 7.42744 | 23115 ft | 480 kts | 155° |
| 2026-04-12 11:03 | 48.64834 | 7.45204 | 23110 ft | 480 kts | 155° |
| 2026-04-12 11:03 | 48.61915 | 7.47655 | 23104 ft | 480 kts | 155° |
| 2026-04-12 11:04 | 48.59001 | 7.50103 | 23104 ft | 480 kts | 155° |
| 2026-04-12 11:04 | 48.56084 | 7.52552 | 23103 ft | 480 kts | 155° |
| 2026-04-12 11:04 | 48.53167 | 7.55001 | 23103 ft | 480 kts | 155° |
| 2026-04-12 11:04 | 48.50348 | 7.57726 | 23099 ft | 484 kts | 147° |
| 2026-04-12 11:05 | 48.47783 | 7.61046 | 23112 ft | 488 kts | 140° |
| 2026-04-12 11:05 | 48.45299 | 7.64528 | 23108 ft | 488 kts | 140° |
| 2026-04-12 11:05 | 48.42847 | 7.67949 | 23102 ft | 487 kts | 141° |
| 2026-04-12 11:05 | 48.40355 | 7.71418 | 23108 ft | 487 kts | 141° |
| 2026-04-12 11:06 | 48.38679 | 7.73747 | 23106 ft | 487 kts | 141° |
| 2026-04-12 11:06 | 48.35377 | 7.78328 | 23110 ft | 487 kts | 141° |
| 2026-04-12 11:06 | 48.32890 | 7.81771 | 23110 ft | 487 kts | 141° |
| 2026-04-12 11:06 | 48.30398 | 7.85216 | 23110 ft | 487 kts | 141° |
| 2026-04-12 11:07 | 48.27907 | 7.88657 | 23102 ft | 487 kts | 141° |
| 2026-04-12 11:07 | 48.25416 | 7.92095 | 23104 ft | 487 kts | 141° |
| 2026-04-12 11:07 | 48.23765 | 7.94373 | 23103 ft | 487 kts | 141° |
| 2026-04-12 11:07 | 48.20433 | 7.98967 | 23099 ft | 487 kts | 141° |
| 2026-04-12 11:08 | 48.18777 | 8.01244 | 23096 ft | 487 kts | 141° |
| 2026-04-12 11:08 | 48.16284 | 8.04666 | 23092 ft | 487 kts | 141° |
| 2026-04-12 11:08 | 48.13786 | 8.08084 | 23089 ft | 487 kts | 141° |
| 2026-04-12 11:08 | 48.11285 | 8.11502 | 23081 ft | 487 kts | 141° |
| 2026-04-12 11:09 | 48.08787 | 8.14915 | 23071 ft | 487 kts | 141° |
| 2026-04-12 11:09 | 48.06288 | 8.18332 | 23057 ft | 487 kts | 140° |
| 2026-04-12 11:09 | 48.03771 | 8.21773 | 22791 ft | 491 kts | 140° |
| 2026-04-12 11:09 | 48.01257 | 8.25205 | 21937 ft | 488 kts | 140° |
| 2026-04-12 11:10 | 47.98756 | 8.28612 | 21007 ft | 484 kts | 140° |
| 2026-04-12 11:10 | 47.96278 | 8.31978 | 20121 ft | 480 kts | 140° |
| 2026-04-12 11:10 | 47.93820 | 8.35310 | 19322 ft | 474 kts | 140° |
| 2026-04-12 11:10 | 47.91391 | 8.38600 | 18428 ft | 472 kts | 140° |
| 2026-04-12 11:11 | 47.88981 | 8.41861 | 17716 ft | 463 kts | 140° |
| 2026-04-12 11:11 | 47.86594 | 8.45085 | 16899 ft | 460 kts | 140° |
| 2026-04-12 11:11 | 47.84272 | 8.48215 | 16656 ft | 435 kts | 140° |
| 2026-04-12 11:11 | 47.82117 | 8.51126 | 16456 ft | 404 kts | 140° |
| 2026-04-12 11:12 | 47.80101 | 8.53850 | 16207 ft | 380 kts | 140° |
| 2026-04-12 11:12 | 47.78173 | 8.56448 | 15585 ft | 370 kts | 140° |
| 2026-04-12 11:12 | 47.76282 | 8.58986 | 14835 ft | 363 kts | 140° |
| 2026-04-12 11:12 | 47.74439 | 8.61452 | 14081 ft | 359 kts | 140° |
| 2026-04-12 11:13 | 47.72594 | 8.63919 | 13281 ft | 357 kts | 140° |
| 2026-04-12 11:13 | 47.70738 | 8.66397 | 12625 ft | 350 kts | 140° |
| 2026-04-12 11:13 | 47.68963 | 8.68767 | 11859 ft | 345 kts | 140° |
| 2026-04-12 11:13 | 47.67169 | 8.71170 | 11317 ft | 340 kts | 140° |
| 2026-04-12 11:14 | 47.65407 | 8.73524 | 11237 ft | 342 kts | 140° |
| 2026-04-12 11:14 | 47.63659 | 8.75854 | 11092 ft | 342 kts | 141° |
| 2026-04-12 11:14 | 47.61893 | 8.78200 | 10952 ft | 341 kts | 140° |
| 2026-04-12 11:14 | 47.60227 | 8.80709 | 10798 ft | 342 kts | 130° |
| 2026-04-12 11:15 | 47.58987 | 8.83713 | 10642 ft | 343 kts | 116° |
| 2026-04-12 11:15 | 47.58228 | 8.87065 | 10498 ft | 344 kts | 106° |
| 2026-04-12 11:15 | 47.57602 | 8.90467 | 10345 ft | 341 kts | 107° |
| 2026-04-12 11:15 | 47.56983 | 8.93797 | 10212 ft | 329 kts | 107° |
| 2026-04-12 11:16 | 47.56382 | 8.97010 | 10089 ft | 319 kts | 107° |
| 2026-04-12 11:16 | 47.55796 | 9.00132 | 9766 ft | 314 kts | 107° |
| 2026-04-12 11:16 | 47.55203 | 9.03270 | 9192 ft | 318 kts | 107° |
| 2026-04-12 11:16 | 47.54608 | 9.06410 | 8760 ft | 316 kts | 107° |
| 2026-04-12 11:17 | 47.54017 | 9.09535 | 8339 ft | 314 kts | 107° |
| 2026-04-12 11:17 | 47.53431 | 9.12634 | 7922 ft | 312 kts | 107° |
| 2026-04-12 11:17 | 47.52965 | 9.15764 | 7504 ft | 311 kts | 102° |
| 2026-04-12 11:17 | 47.52596 | 9.18898 | 7084 ft | 309 kts | 101° |
| 2026-04-12 11:18 | 47.52258 | 9.22034 | 6671 ft | 308 kts | 100° |
| 2026-04-12 11:18 | 47.51929 | 9.25150 | 6248 ft | 306 kts | 100° |
| 2026-04-12 11:18 | 47.51600 | 9.28242 | 5817 ft | 303 kts | 100° |
| 2026-04-12 11:18 | 47.51269 | 9.31304 | 5405 ft | 300 kts | 100° |
| 2026-04-12 11:19 | 47.50970 | 9.34323 | 5107 ft | 290 kts | 93° |
| 2026-04-12 11:19 | 47.51170 | 9.37124 | 5099 ft | 260 kts | 73° |
| 2026-04-12 11:19 | 47.51894 | 9.39401 | 5104 ft | 232 kts | 53° |
| 2026-04-12 11:19 | 47.52943 | 9.41030 | 5096 ft | 207 kts | 34° |
| 2026-04-12 11:20 | 47.54131 | 9.42037 | 5167 ft | 193 kts | 19° |
| 2026-04-12 11:20 | 47.55413 | 9.42537 | 5136 ft | 188 kts | 3° |
| 2026-04-12 11:20 | 47.56707 | 9.42519 | 5130 ft | 185 kts | 348° |
| 2026-04-12 11:20 | 47.57923 | 9.42030 | 5130 ft | 183 kts | 334° |
| 2026-04-12 11:21 | 47.59023 | 9.41118 | 5130 ft | 180 kts | 320° |
| 2026-04-12 11:21 | 47.59937 | 9.39836 | 5126 ft | 178 kts | 306° |
| 2026-04-12 11:21 | 47.60597 | 9.38295 | 5129 ft | 177 kts | 293° |
| 2026-04-12 11:21 | 47.60994 | 9.36577 | 5134 ft | 176 kts | 282° |
| 2026-04-12 11:22 | 47.61248 | 9.34826 | 5132 ft | 176 kts | 279° |
| 2026-04-12 11:22 | 47.61479 | 9.33021 | 5133 ft | 176 kts | 279° |
| 2026-04-12 11:22 | 47.61699 | 9.31259 | 5134 ft | 176 kts | 279° |
| 2026-04-12 11:22 | 47.61923 | 9.29476 | 5131 ft | 176 kts | 279° |
| 2026-04-12 11:23 | 47.62149 | 9.27695 | 5133 ft | 176 kts | 279° |
| 2026-04-12 11:23 | 47.62376 | 9.25909 | 5131 ft | 177 kts | 279° |
| 2026-04-12 11:23 | 47.62586 | 9.24113 | 5130 ft | 176 kts | 275° |
| 2026-04-12 11:23 | 47.62607 | 9.22304 | 5125 ft | 175 kts | 263° |
| 2026-04-12 11:24 | 47.62351 | 9.20540 | 5130 ft | 176 kts | 250° |
| 2026-04-12 11:24 | 47.61817 | 9.18917 | 5126 ft | 176 kts | 237° |
| 2026-04-12 11:24 | 47.61034 | 9.17521 | 5127 ft | 177 kts | 224° |
| 2026-04-12 11:24 | 47.60037 | 9.16443 | 5124 ft | 178 kts | 211° |
| 2026-04-12 11:25 | 47.58888 | 9.15747 | 5128 ft | 180 kts | 197° |
| 2026-04-12 11:25 | 47.57645 | 9.15484 | 5123 ft | 182 kts | 182° |
| 2026-04-12 11:25 | 47.56381 | 9.15689 | 5124 ft | 184 kts | 168° |
| 2026-04-12 11:25 | 47.55181 | 9.16364 | 5125 ft | 186 kts | 153° |
| 2026-04-12 11:26 | 47.54126 | 9.17479 | 5124 ft | 188 kts | 138° |
| 2026-04-12 11:26 | 47.53286 | 9.18969 | 5114 ft | 190 kts | 123° |
| 2026-04-12 11:26 | 47.52727 | 9.20733 | 5112 ft | 190 kts | 108° |
| 2026-04-12 11:26 | 47.52402 | 9.22633 | 5112 ft | 191 kts | 102° |
| 2026-04-12 11:27 | 47.52146 | 9.24565 | 5116 ft | 191 kts | 101° |
| 2026-04-12 11:27 | 47.51904 | 9.26499 | 5112 ft | 191 kts | 101° |
| 2026-04-12 11:27 | 47.51663 | 9.28433 | 5109 ft | 191 kts | 101° |
| 2026-04-12 11:27 | 47.51420 | 9.30362 | 5103 ft | 191 kts | 101° |
| 2026-04-12 11:28 | 47.51224 | 9.32274 | 5108 ft | 191 kts | 90° |
| 2026-04-12 11:28 | 47.51245 | 9.34245 | 5011 ft | 192 kts | 95° |
| 2026-04-12 11:28 | 47.51075 | 9.36197 | 4743 ft | 191 kts | 100° |
| 2026-04-12 11:28 | 47.50841 | 9.38139 | 4412 ft | 193 kts | 101° |
| 2026-04-12 11:29 | 47.50591 | 9.40100 | 4073 ft | 195 kts | 101° |
| 2026-04-12 11:29 | 47.50356 | 9.41901 | 3750 ft | 196 kts | 101° |
| 2026-04-12 11:29 | 47.50312 | 9.42233 | 3693 ft | 196 kts | 101° |
| 2026-04-12 11:29 | 47.50054 | 9.44205 | 3341 ft | 193 kts | 100° |
| 2026-04-12 11:30 | 47.49814 | 9.46063 | 3011 ft | 175 kts | 99° |
| 2026-04-12 11:30 | 47.49594 | 9.47755 | 2725 ft | 161 kts | 99° |
| 2026-04-12 11:30 | 47.49388 | 9.49326 | 2412 ft | 151 kts | 99° |
| 2026-04-12 11:30 | 47.49193 | 9.50820 | 2120 ft | 146 kts | 100° |
| 2026-04-12 11:31 | 47.49001 | 9.52291 | 1856 ft | 146 kts | 101° |
| 2026-04-12 11:31 | 47.48797 | 9.53769 | 1585 ft | 148 kts | 105° |
| 2026-04-12 11:31 | 47.48590 | 9.55235 | 1323 ft | 142 kts | 98° |
| 2026-04-12 11:31 | 47.48475 | 9.56356 | 1314 ft | 76 kts | 99° |
| 2026-04-12 11:32 | 47.48416 | 9.56925 | 1314 ft | 39 kts | 98° |
| 2026-04-12 11:32 | 47.48407 | 9.57011 | 1315 ft | 33 kts | 98° |
| 2026-04-12 11:32 | 47.48402 | 9.57063 | 1318 ft | 0 kts | 98° |
| 2026-04-12 11:32 | 47.48411 | 9.56978 | 1315 ft | 0 kts | 98° |
| 2026-04-12 11:33 | 47.48406 | 9.57004 | 1315 ft | 5 kts | 112° |
| 2026-04-12 11:33 | 47.48413 | 9.57051 | 1316 ft | 2 kts | 6° |
| 2026-04-12 11:34 | 47.48413 | 9.57026 | 1315 ft | 5 kts | 267° |
| 2026-04-12 11:34 | 47.48415 | 9.56947 | 1314 ft | 11 kts | 279° |
| 2026-04-12 11:34 | 47.48431 | 9.56812 | 1313 ft | 16 kts | 280° |
| 2026-04-12 11:34 | 47.48446 | 9.56646 | 1313 ft | 16 kts | 277° |
| 2026-04-12 11:35 | 47.48463 | 9.56488 | 1313 ft | 15 kts | 278° |
| 2026-04-12 11:35 | 47.48479 | 9.56334 | 1314 ft | 15 kts | 279° |
| 2026-04-12 11:35 | 47.48495 | 9.56182 | 1314 ft | 15 kts | 279° |
| 2026-04-12 11:35 | 47.48510 | 9.56030 | 1315 ft | 15 kts | 279° |
| 2026-04-12 11:36 | 47.48525 | 9.55884 | 1317 ft | 14 kts | 278° |
| 2026-04-12 11:36 | 47.48542 | 9.55727 | 1317 ft | 17 kts | 279° |
| 2026-04-12 11:36 | 47.48561 | 9.55541 | 1316 ft | 19 kts | 278° |
| 2026-04-12 11:36 | 47.48583 | 9.55353 | 1316 ft | 15 kts | 292° |
| 2026-04-12 11:37 | 47.48644 | 9.55326 | 1315 ft | 3 kts | 322° |
| 2026-04-12 11:37 | 47.48658 | 9.55285 | 1315 ft | 5 kts | 295° |
| 2026-04-12 11:37 | 47.48683 | 9.55248 | 1315 ft | 6 kts | 353° |
| 2026-04-12 11:37 | 47.48715 | 9.55253 | 1315 ft | 5 kts | 7° |
| 2026-04-12 11:38 | 47.48723 | 9.55254 | 1315 ft | 0 kts | 7° |